createdAt,value
2022-08-04T00:04:32.507Z,61.30
2022-08-04T00:10:04.140Z,60.62
2022-08-04T00:15:35.764Z,59.92
2022-08-04T00:23:28.347Z,62.48
2022-08-04T00:29:00.210Z,62.80
2022-08-04T00:34:32.082Z,65.67
2022-08-04T00:46:00.410Z,64.61
2022-08-04T00:53:27.110Z,62.95
2022-08-04T00:58:58.787Z,65.21
2022-08-04T03:05:16.009Z,70.10
2022-08-04T03:10:47.817Z,70.36
2022-08-04T03:16:31.236Z,70.21
2022-08-04T03:22:04.050Z,70.06
2022-08-04T03:27:36.467Z,71.68
2022-08-04T03:33:11.057Z,71.50
2022-08-04T03:38:43.029Z,72.90
2022-08-04T03:49:44.609Z,71.04
2022-08-04T03:55:16.176Z,71.54
2022-08-04T04:00:54.031Z,72.17
2022-08-04T04:06:25.991Z,74.87
2022-08-04T04:11:58.205Z,72.29
2022-08-04T04:17:29.378Z,76.22
2022-08-04T04:23:00.924Z,71.69
2022-08-04T04:36:24.886Z,70.56
2022-08-04T04:41:56.450Z,69.45
2022-08-04T04:52:57.776Z,64.81
2022-08-04T04:58:29.400Z,63.79
2022-08-04T05:04:01.196Z,61.90
2022-08-04T05:09:32.950Z,62.38
2022-08-04T05:15:04.774Z,64.27
2022-08-04T05:20:36.703Z,65.33
2022-08-04T05:26:08.333Z,65.80
2022-08-04T05:37:09.151Z,66.23
2022-08-04T05:42:41.130Z,66.71
2022-08-04T05:48:12.965Z,64.07
2022-08-04T05:53:44.439Z,61.15
2022-08-04T05:59:16.538Z,58.83
2022-08-04T06:04:48.109Z,55.40
2022-08-04T06:10:23.054Z,49.50
2022-08-04T06:15:51.773Z,51.95
2022-08-04T06:21:23.682Z,45.41
2022-08-04T06:26:55.374Z,44.73
2022-08-04T06:32:33.563Z,44.54
2022-08-04T06:38:00.992Z,40.56
2022-08-04T06:43:30.809Z,41.18
2022-08-04T06:49:02.515Z,40.92
2022-08-04T06:54:34.319Z,39.19
2022-08-04T07:05:37.703Z,38.53
2022-08-04T07:11:09.433Z,37.88
2022-08-04T07:16:41.166Z,36.48
2022-08-04T07:22:24.439Z,35.58
2022-08-04T07:27:48.217Z,34.46
2022-08-04T07:33:17.176Z,34.51
2022-08-04T07:38:51.643Z,35.06
2022-08-04T07:44:20.727Z,32.71
2022-08-04T07:49:56.606Z,33.30
2022-08-04T07:55:24.378Z,36.26
2022-08-04T08:00:55.934Z,35.22
2022-08-04T08:06:32.624Z,35.33
2022-08-04T08:12:36.050Z,36.23
2022-08-04T08:17:31.287Z,35.43
2022-08-04T08:23:02.870Z,34.91
2022-08-04T08:28:34.410Z,33.35
2022-08-04T08:34:06.299Z,32.24
2022-08-04T08:39:38.179Z,31.62
2022-08-04T08:45:10.149Z,31.01
2022-08-04T08:50:41.805Z,31.09
2022-08-04T08:56:13.470Z,30.86
2022-08-04T09:01:45.450Z,31.63
2022-08-04T09:07:17.077Z,32.49
2022-08-04T09:12:48.991Z,32.49
2022-08-04T09:18:22.211Z,31.63
2022-08-04T09:23:53.994Z,30.76
2022-08-04T09:29:25.795Z,30.71
2022-08-04T09:35:08.432Z,31.02
2022-08-04T09:40:52.277Z,30.62
2022-08-04T09:46:01.221Z,31.40
2022-08-04T09:51:57.975Z,32.25
2022-08-04T10:02:34.509Z,34.65
2022-08-04T10:08:16.110Z,34.41
2022-08-04T10:13:37.905Z,35.50
2022-08-04T10:19:09.761Z,35.32
2022-08-04T10:24:41.525Z,35.13
2022-08-04T10:30:13.462Z,34.44
2022-08-04T10:35:45.159Z,35.40
2022-08-04T10:41:16.863Z,36.11
2022-08-04T10:46:48.636Z,35.65
2022-08-04T10:52:20.598Z,34.47
2022-08-04T10:57:52.264Z,33.13
2022-08-04T11:03:24.007Z,31.92
2022-08-04T11:08:55.837Z,32.13
2022-08-04T11:14:27.681Z,31.55
2022-08-04T11:20:18.209Z,31.70
2022-08-04T11:25:31.187Z,29.24
2022-08-04T11:31:03.071Z,30.74
2022-08-04T11:36:34.911Z,31.19
2022-08-04T11:42:06.779Z,31.56
2022-08-04T11:47:38.320Z,30.44
2022-08-04T11:53:10.110Z,32.10
2022-08-04T11:58:41.616Z,32.01
2022-08-04T12:04:13.498Z,32.39
2022-08-04T12:09:45.432Z,32.48
2022-08-04T12:15:16.935Z,31.43
2022-08-04T12:20:48.895Z,30.84
2022-08-04T12:26:20.726Z,31.18
2022-08-04T12:31:52.479Z,31.81
2022-08-04T12:37:24.288Z,32.17
2022-08-04T12:42:59.443Z,32.29
2022-08-04T12:48:27.386Z,32.22
2022-08-04T12:53:59.386Z,31.46
2022-08-04T12:59:31.150Z,30.75
2022-08-04T13:05:02.846Z,30.07
2022-08-04T13:10:34.541Z,30.91
2022-08-04T13:16:08.399Z,31.27
2022-08-04T13:21:50.226Z,30.90
2022-08-04T13:27:09.871Z,30.87
2022-08-04T13:32:41.673Z,30.84
2022-08-04T13:38:13.608Z,30.82
2022-08-04T13:43:48.575Z,30.68
2022-08-04T13:49:31.338Z,29.83
2022-08-04T13:54:48.984Z,31.16
2022-08-04T14:00:30.254Z,30.71
2022-08-04T14:05:59.723Z,30.93
2022-08-04T14:12:06.801Z,30.60
2022-08-04T14:16:56.432Z,30.00
2022-08-04T14:22:28.287Z,30.64
2022-08-04T14:28:00.485Z,29.85
2022-08-04T14:34:04.716Z,29.53
2022-08-04T14:39:03.994Z,29.15
2022-08-04T14:44:35.907Z,29.72
2022-08-04T14:50:07.536Z,29.52
2022-08-04T14:55:39.370Z,29.44
2022-08-04T15:01:12.365Z,29.66
2022-08-04T15:06:43.597Z,29.62
2022-08-04T15:12:15.403Z,29.66
2022-08-04T15:17:47.012Z,29.73
2022-08-04T15:23:18.825Z,28.75
2022-08-04T15:28:50.751Z,29.24
2022-08-04T15:34:22.496Z,29.06
2022-08-04T15:45:23.821Z,28.75
2022-08-04T15:50:55.498Z,29.11
2022-08-04T15:56:27.361Z,28.28
2022-08-04T16:02:11.906Z,28.41
2022-08-04T16:07:31.003Z,28.88
2022-08-04T16:13:03.007Z,28.89
2022-08-04T16:18:34.281Z,29.04
2022-08-04T16:24:06.605Z,29.43
2022-08-04T16:29:37.316Z,29.22
2022-08-04T16:35:08.863Z,29.38
2022-08-04T16:43:01.770Z,29.36
2022-08-04T16:48:33.520Z,29.33
2022-08-04T16:54:05.634Z,29.79
2022-08-04T16:59:37.207Z,29.68
2022-08-04T17:05:08.822Z,30.23
2022-08-04T17:10:40.368Z,30.91
2022-08-04T17:16:13.908Z,30.58
2022-08-04T17:21:44.746Z,30.82
2022-08-04T17:32:45.836Z,31.02
2022-08-04T17:38:17.815Z,31.06
2022-08-04T17:44:04.589Z,31.15
2022-08-04T17:49:20.922Z,31.53
2022-08-04T17:54:52.503Z,31.73
2022-08-04T18:00:24.418Z,31.85
2022-08-04T18:06:03.562Z,32.29
2022-08-04T18:11:29.559Z,32.73
2022-08-04T18:16:59.743Z,33.24
2022-08-04T18:22:31.341Z,34.09
2022-08-04T18:28:02.806Z,34.57
2022-08-04T18:33:40.706Z,35.50
2022-08-04T18:39:15.088Z,36.76
2022-08-04T18:44:49.340Z,37.63
2022-08-04T18:51:01.175Z,38.25
2022-08-04T19:03:35.339Z,39.19
2022-08-04T19:09:07.068Z,38.92
2022-08-04T19:14:38.360Z,41.46
2022-08-04T19:20:15.762Z,40.76
2022-08-04T19:26:02.831Z,41.78
2022-08-04T19:31:17.122Z,41.17
2022-08-04T19:36:46.238Z,41.13
2022-08-04T19:42:17.763Z,41.30
2022-08-04T19:48:16.829Z,40.62
2022-08-04T19:53:36.076Z,40.85
2022-08-04T19:58:52.798Z,41.66
2022-08-04T20:04:24.994Z,41.33
2022-08-04T20:09:56.612Z,41.36
2022-08-04T20:15:28.281Z,42.27
2022-08-04T20:21:00.360Z,41.82
2022-08-04T20:26:32.219Z,42.85
2022-08-04T20:32:08.854Z,43.13
2022-08-04T20:37:56.863Z,45.27
2022-08-04T20:43:07.913Z,45.21
2022-08-04T20:48:39.516Z,45.80
2022-08-04T20:54:16.840Z,45.73
2022-08-04T20:59:43.048Z,46.97
2022-08-04T21:05:14.861Z,47.24
2022-08-04T21:10:47.586Z,48.13
2022-08-04T21:21:53.343Z,49.96
2022-08-04T21:27:30.988Z,50.45
2022-08-04T21:33:02.752Z,51.73
2022-08-04T21:38:34.396Z,53.10
2022-08-04T21:44:06.661Z,53.62
2022-08-04T21:49:38.196Z,54.28
2022-08-04T22:00:39.217Z,55.19
2022-08-04T22:06:10.909Z,55.20
2022-08-04T22:11:48.264Z,56.26
2022-08-04T22:17:24.183Z,58.40
2022-08-04T22:22:46.232Z,59.11
2022-08-04T22:28:18.799Z,57.25
2022-08-04T22:33:54.379Z,56.62
2022-08-04T22:39:27.649Z,57.85
2022-08-04T22:44:56.048Z,55.16
2022-08-04T22:50:28.409Z,57.09
2022-08-04T22:56:09.184Z,58.19
2022-08-04T23:01:39.238Z,59.31
2022-08-04T23:07:05.133Z,57.44
2022-08-04T23:12:34.857Z,59.98
2022-08-04T23:18:06.758Z,59.41
2022-08-04T23:23:55.245Z,61.38
2022-08-04T23:29:10.231Z,60.64
2022-08-04T23:34:42.292Z,60.45
2022-08-04T23:40:30.227Z,60.70
2022-08-04T23:46:01.942Z,60.56
2022-08-04T23:51:17.851Z,64.09
2022-08-04T23:56:49.717Z,64.52
